ADDS METAR Data INFO
IDs: Format: Raw Decoded Include TAF

Data at: 1037 UTC 19 Oct 2017

KJNX 191030Z AUTO 00000KT 10SM CLR 07/07 A3029 RMK AO2
KJNX 191010Z AUTO 00000KT 10SM CLR 07/07 A3029 RMK AO2
KJNX 190950Z AUTO 00000KT 10SM CLR 07/07 A3028 RMK AO2
KJNX 190930Z AUTO 00000KT 10SM CLR 07/07 A3029 RMK AO2
KJNX 190910Z AUTO 00000KT 10SM CLR 07/07 A3029 RMK AO2
KJNX 190850Z AUTO 00000KT 10SM CLR 07/07 A3028 RMK AO2
KJNX 190830Z AUTO 00000KT 10SM CLR 07/07 A3028 RMK AO2
KJNX 190810Z AUTO 00000KT 10SM CLR 07/07 A3029 RMK AO2
KJNX 190750Z AUTO 00000KT 10SM CLR 07/07 A3029 RMK AO2
KJNX 190730Z AUTO 00000KT 10SM CLR 07/07 A3029 RMK AO2
KJNX 190710Z AUTO 00000KT 10SM CLR 07/07 A3029 RMK AO2
KJNX 190650Z AUTO 00000KT 10SM CLR 07/07 A3030 RMK AO2
KJNX 190630Z AUTO 00000KT 10SM CLR 07/07 A3030 RMK AO2
KJNX 190610Z AUTO 00000KT 10SM CLR 07/07 A3029 RMK AO2
KJNX 190550Z AUTO 00000KT 10SM CLR 07/07 A3030 RMK AO2
KJNX 190530Z AUTO 00000KT 10SM CLR 07/07 A3030 RMK AO2
KJNX 190510Z AUTO 00000KT 10SM CLR 07/07 A3030 RMK AO2
KJNX 190450Z AUTO 00000KT 10SM CLR 07/07 A3031 RMK AO2
KJNX 190430Z AUTO 00000KT 10SM CLR 07/07 A3031 RMK AO2
KJNX 190410Z AUTO 00000KT 10SM CLR 08/08 A3031 RMK AO2
KJNX 190350Z AUTO 00000KT 10SM CLR 08/08 A3031 RMK AO2
KJNX 190330Z AUTO 00000KT 10SM CLR 08/08 A3032 RMK AO2
KJNX 190310Z AUTO 00000KT 10SM CLR 08/08 A3031 RMK AO2
KJNX 190250Z AUTO 00000KT 10SM CLR 08/08 A3031 RMK AO2
KJNX 190230Z AUTO 00000KT 10SM CLR 09/09 A3032 RMK AO2
KJNX 190210Z AUTO 00000KT 10SM CLR 09/09 A3032 RMK AO2
KJNX 190130Z AUTO 00000KT 10SM CLR 10/10 A3032 RMK AO2
KJNX 190110Z AUTO 00000KT 10SM CLR 10/10 A3032 RMK AO2
KJNX 190050Z AUTO 00000KT 10SM CLR 10/10 A3032 RMK AO2
KJNX 190030Z AUTO 00000KT 10SM CLR 11/11 A3032 RMK AO2
KJNX 190010Z AUTO 00000KT 10SM CLR 11/11 A3031 RMK AO2
KJNX 182350Z AUTO 00000KT 10SM CLR 11/11 A3031 RMK AO2
KJNX 182330Z AUTO 00000KT 10SM CLR 12/11 A3031 RMK AO2
KJNX 182310Z AUTO 00000KT 10SM CLR 12/11 A3031 RMK AO2
KJNX 182250Z AUTO 00000KT 10SM CLR 14/11 A3031 RMK AO2
KJNX 182230Z AUTO 00000KT 10SM CLR 16/11 A3031 RMK AO2
KJNX 182210Z AUTO 00000KT 2 1/2SM HZ CLR 19/10 A3030 RMK AO2
KJNX 182150Z AUTO 04003KT 5SM HZ CLR 20/08 A3031 RMK AO2
KJNX 182130Z AUTO 05003KT 2 1/2SM HZ CLR 20/08 A3031 RMK AO2
KJNX 182110Z AUTO 36003KT 10SM CLR 21/08 A3031 RMK AO2
KJNX 182030Z AUTO 04003KT 7SM CLR 21/07 A3031 RMK AO2
KJNX 182010Z AUTO 04005KT 10SM CLR 21/07 A3031 RMK AO2
KJNX 181930Z AUTO 05003KT 10SM CLR 20/07 A3032 RMK AO2
KJNX 181910Z AUTO 04006KT 10SM CLR 20/07 A3033 RMK AO2
KJNX 181850Z AUTO 05005KT 10SM CLR 20/07 A3033 RMK AO2
KJNX 181830Z AUTO 03003KT 10SM CLR 20/07 A3034 RMK AO2
KJNX 181810Z AUTO 05006KT 10SM CLR 20/07 A3034 RMK AO2
KJNX 181750Z AUTO 04007KT 10SM CLR 19/07 A3035 RMK AO2
KJNX 181730Z AUTO 02003KT 10SM CLR 19/07 A3036 RMK AO2
KJNX 181710Z AUTO 11004KT 10SM CLR 19/06 A3037 RMK AO2
KJNX 181650Z AUTO 03005G08KT 10SM CLR 18/06 A3038 RMK AO2
KJNX 181630Z AUTO 03007KT 10SM CLR 18/07 A3038 RMK AO2
KJNX 181610Z AUTO 03005KT 10SM CLR 17/07 A3039 RMK AO2
KJNX 181550Z AUTO 04005KT 10SM CLR 17/07 A3040 RMK AO2
KJNX 181530Z AUTO 03008KT 10SM CLR 16/08 A3040 RMK AO2
KJNX 181450Z AUTO 03006KT 10SM CLR 15/08 A3040 RMK AO2
KJNX 181430Z AUTO 03005KT 10SM CLR 14/08 A3040 RMK AO2
KJNX 181410Z AUTO 04005KT 10SM CLR 13/08 A3040 RMK AO2
KJNX 181350Z AUTO 04004KT 10SM CLR 12/08 A3040 RMK AO2
KJNX 181330Z AUTO 03003KT 10SM CLR 10/08 A3039 RMK AO2
KJNX 181310Z AUTO 00000KT 10SM CLR 08/08 A3039 RMK AO2
KJNX 181250Z AUTO 00000KT 10SM CLR 06/06 A3038 RMK AO2
KJNX 181230Z AUTO 00000KT 10SM CLR 05/05 A3038 RMK AO2
KJNX 181210Z AUTO 00000KT 10SM CLR 03/03 A3037 RMK AO2
KJNX 181150Z AUTO 00000KT 10SM CLR 03/03 A3036 RMK AO2
KJNX 181130Z AUTO 00000KT 10SM CLR 03/03 A3036 RMK AO2
KJNX 181110Z AUTO 00000KT 10SM CLR 03/03 A3035 RMK AO2
KJNX 181050Z AUTO 00000KT 10SM CLR 03/03 A3035 RMK AO2
KJNX 181030Z AUTO 00000KT 10SM CLR 03/03 A3034 RMK AO2
KJNX 181010Z AUTO 00000KT 10SM CLR 03/03 A3034 RMK AO2
KJNX 180930Z AUTO 00000KT 10SM CLR 04/04 A3033 RMK AO2
KJNX 180910Z AUTO 00000KT 10SM CLR 04/04 A3033 RMK AO2
KJNX 180850Z AUTO 00000KT 10SM CLR 04/04 A3033 RMK AO2
KJNX 180810Z AUTO 00000KT 10SM CLR 04/04 A3032 RMK AO2
KJNX 180750Z AUTO 00000KT 10SM CLR 05/05 A3032 RMK AO2
KJNX 180710Z AUTO 00000KT 10SM CLR 05/05 A3032 RMK AO2
KJNX 180650Z AUTO 00000KT 10SM CLR 05/05 A3032 RMK AO2
KJNX 180610Z AUTO 00000KT 10SM CLR 05/05 A3031 RMK AO2
KJNX 180530Z AUTO 00000KT 10SM CLR 06/06 A3032 RMK AO2
KJNX 180510Z AUTO 00000KT 10SM CLR 06/06 A3032 RMK AO2
KJNX 180450Z AUTO 00000KT 10SM CLR 06/06 A3032 RMK AO2
KJNX 180430Z AUTO 00000KT 10SM CLR 06/06 A3033 RMK AO2
KJNX 180410Z AUTO 00000KT 10SM CLR 06/06 A3032 RMK AO2
KJNX 180350Z AUTO 00000KT 10SM CLR 06/06 A3033 RMK AO2
KJNX 180330Z AUTO 00000KT 10SM CLR 07/07 A3034 RMK AO2
KJNX 180310Z AUTO 00000KT 10SM CLR 07/07 A3034 RMK AO2
KJNX 180250Z AUTO 00000KT 10SM CLR 07/07 A3034 RMK AO2
KJNX 180230Z AUTO 00000KT 10SM CLR 07/07 A3034 RMK AO2
KJNX 180210Z AUTO 00000KT 10SM CLR 07/07 A3034 RMK AO2
KJNX 180150Z AUTO 00000KT 10SM CLR 08/08 A3033 RMK AO2
KJNX 180130Z AUTO 00000KT 10SM CLR 08/08 A3032 RMK AO2
KJNX 180110Z AUTO 00000KT 10SM CLR 08/08 A3032 RMK AO2
KJNX 180050Z AUTO 00000KT 10SM CLR 08/08 A3031 RMK AO2
KJNX 180030Z AUTO 00000KT 10SM CLR 09/08 A3031 RMK AO2
KJNX 180010Z AUTO 00000KT 10SM CLR 09/08 A3031 RMK AO2
KJNX 172350Z AUTO 00000KT 10SM CLR 10/09 A3030 RMK AO2
KJNX 172330Z AUTO 00000KT 10SM CLR 10/09 A3029 RMK AO2
KJNX 172310Z AUTO 00000KT 10SM CLR 11/08 A3029 RMK AO2
KJNX 172250Z AUTO 00000KT 10SM CLR 12/08 A3028 RMK AO2